createdAt,value
2022-09-20T00:02:04.621Z,7.9
2022-09-20T00:05:04.718Z,7.9
2022-09-20T00:08:04.663Z,7.9
2022-09-20T00:11:04.679Z,7.9
2022-09-20T00:14:04.680Z,7.9
2022-09-20T00:17:04.762Z,8
2022-09-20T00:20:04.730Z,8
2022-09-20T00:23:04.782Z,8
2022-09-20T00:26:04.802Z,8.1
2022-09-20T00:29:04.810Z,8.1
2022-09-20T00:32:04.914Z,8.1
2022-09-20T00:35:04.864Z,8.1
2022-09-20T00:38:04.886Z,8.2
2022-09-20T00:41:04.944Z,8.2
2022-09-20T00:44:04.924Z,8.2
2022-09-20T00:47:04.941Z,8.3
2022-09-20T00:50:04.957Z,8.3
2022-09-20T00:53:04.980Z,8.3
2022-09-20T00:56:05.009Z,8.3
2022-09-20T00:59:05.050Z,8.3
2022-09-20T01:02:05.054Z,8.3
2022-09-20T01:05:05.058Z,8.3
2022-09-20T01:08:05.078Z,8.3
2022-09-20T01:11:05.121Z,8.3
2022-09-20T01:14:05.129Z,8.3
2022-09-20T01:17:05.176Z,8.3
2022-09-20T01:20:05.176Z,8.3
2022-09-20T01:23:05.192Z,8.3
2022-09-20T01:26:05.228Z,8.3
2022-09-20T01:29:05.245Z,8.4
2022-09-20T01:32:05.345Z,8.4
2022-09-20T01:35:05.375Z,8.4
2022-09-20T01:38:05.294Z,8.4
2022-09-20T01:41:05.327Z,8.4
2022-09-20T01:44:05.335Z,8.4
2022-09-20T01:47:05.351Z,8.5
2022-09-20T01:50:05.373Z,8.5
2022-09-20T01:53:05.411Z,8.5
2022-09-20T01:56:05.419Z,8.6
2022-09-20T01:59:22.969Z,8.6
2022-09-20T02:02:05.503Z,8.6
2022-09-20T02:05:05.495Z,8.6
2022-09-20T02:08:05.507Z,8.6
2022-09-20T02:11:05.566Z,8.7
2022-09-20T02:14:05.637Z,8.7
2022-09-20T02:17:05.575Z,8.7
2022-09-20T02:20:05.591Z,8.7
2022-09-20T02:23:05.643Z,8.7
2022-09-20T02:26:05.637Z,8.7
2022-09-20T02:29:05.775Z,8.6
2022-09-20T02:32:05.720Z,8.6
2022-09-20T02:35:05.690Z,8.6
2022-09-20T02:38:05.707Z,8.7
2022-09-20T02:41:05.729Z,8.6
2022-09-20T02:44:05.796Z,8.6
2022-09-20T02:47:05.790Z,8.6
2022-09-20T02:50:05.791Z,8.6
2022-09-20T02:53:05.817Z,8.6
2022-09-20T02:56:05.861Z,8.6
2022-09-20T02:59:06.038Z,8.6
2022-09-20T03:02:05.921Z,8.6
2022-09-20T03:05:05.942Z,8.6
2022-09-20T03:08:05.939Z,8.5
2022-09-20T03:11:05.976Z,8.5
2022-09-20T03:14:06.092Z,8.5
2022-09-20T03:17:06.065Z,8.5
2022-09-20T03:20:06.008Z,8.5
2022-09-20T03:23:06.046Z,8.6
2022-09-20T03:26:06.054Z,8.5
2022-09-20T03:29:06.173Z,8.5
2022-09-20T03:32:06.121Z,8.6
2022-09-20T03:35:06.089Z,8.5
2022-09-20T03:38:06.120Z,8.5
2022-09-20T03:41:06.178Z,8.5
2022-09-20T03:44:06.263Z,8.5
2022-09-20T03:47:06.197Z,8.5
2022-09-20T03:50:06.222Z,8.5
2022-09-20T03:53:06.243Z,8.5
2022-09-20T03:56:06.291Z,8.5
2022-09-20T03:59:06.481Z,8.5
2022-09-20T04:02:06.481Z,8.5
2022-09-20T04:05:06.321Z,8.5
2022-09-20T04:08:06.340Z,8.5
2022-09-20T04:11:06.354Z,8.5
2022-09-20T04:14:10.693Z,8.5
2022-09-20T04:17:06.597Z,8.5
2022-09-20T04:20:06.412Z,8.5
2022-09-20T04:23:06.428Z,8.5
2022-09-20T04:26:06.443Z,8.5
2022-09-20T04:29:06.608Z,8.5
2022-09-20T04:32:06.556Z,8.5
2022-09-20T04:35:06.537Z,8.5
2022-09-20T04:38:06.537Z,8.5
2022-09-20T04:41:06.547Z,8.6
2022-09-20T04:44:06.751Z,8.6
2022-09-20T04:47:06.598Z,8.6
2022-09-20T04:50:06.610Z,8.6
2022-09-20T04:53:06.652Z,8.6
2022-09-20T04:56:06.649Z,8.6
2022-09-20T04:59:06.892Z,8.6
2022-09-20T05:02:06.713Z,8.6
2022-09-20T05:05:06.701Z,8.6
2022-09-20T05:08:06.716Z,8.6
2022-09-20T05:11:06.760Z,8.6
2022-09-20T05:14:06.758Z,8.7
2022-09-20T05:17:06.858Z,8.7
2022-09-20T05:20:06.795Z,8.7
2022-09-20T05:23:06.827Z,8.7
2022-09-20T05:26:06.837Z,8.8
2022-09-20T05:29:06.894Z,8.7
2022-09-20T05:32:06.948Z,8.7
2022-09-20T05:35:06.905Z,8.7
2022-09-20T05:38:06.943Z,8.8
2022-09-20T05:41:06.944Z,8.8
2022-09-20T05:44:07.052Z,8.9
2022-09-20T05:47:07.008Z,8.9
2022-09-20T05:50:07.009Z,8.9
2022-09-20T05:53:07.018Z,8.9
2022-09-20T05:56:07.035Z,8.9
2022-09-20T05:59:09.413Z,8.9
2022-09-20T06:02:07.125Z,9
2022-09-20T06:05:07.111Z,9
2022-09-20T06:08:07.105Z,9.1
2022-09-20T06:11:07.119Z,9.1
2022-09-20T06:14:07.273Z,9.1
2022-09-20T06:17:07.163Z,9.2
2022-09-20T06:20:07.185Z,9.2
2022-09-20T06:23:07.240Z,9.2
2022-09-20T06:26:07.240Z,9.2
2022-09-20T06:29:07.302Z,9.2
2022-09-20T06:32:07.283Z,9.3
2022-09-20T06:35:07.392Z,9.3
2022-09-20T06:38:07.327Z,9.3
2022-09-20T06:41:07.367Z,9.3
2022-09-20T06:44:07.509Z,9.3
2022-09-20T06:47:07.389Z,9.2
2022-09-20T06:50:07.409Z,9.3
2022-09-20T06:53:07.430Z,9.2
2022-09-20T06:56:07.454Z,9.3
2022-09-20T06:59:07.571Z,9.3
2022-09-20T07:02:07.525Z,9.3
2022-09-20T07:05:07.514Z,9.3
2022-09-20T07:08:07.558Z,9.3
2022-09-20T07:11:07.564Z,9.3
2022-09-20T07:14:07.597Z,9.4
2022-09-20T07:17:07.642Z,9.4
2022-09-20T07:20:07.631Z,9.4
2022-09-20T07:23:07.663Z,9.4
2022-09-20T07:26:07.677Z,9.5
2022-09-20T07:29:07.753Z,9.5
2022-09-20T07:32:07.727Z,9.7
2022-09-20T07:35:07.774Z,9.6
2022-09-20T07:38:07.762Z,9.5
2022-09-20T07:41:07.787Z,9.6
2022-09-20T07:44:07.800Z,9.6
2022-09-20T07:47:07.822Z,9.3
2022-09-20T07:50:07.844Z,9.4
2022-09-20T07:53:07.878Z,9.4
2022-09-20T07:56:07.892Z,9.4
2022-09-20T07:59:07.963Z,9.6
2022-09-20T08:02:08.018Z,9.6
2022-09-20T08:05:07.948Z,9.6
2022-09-20T08:08:07.970Z,9.5
2022-09-20T08:11:08.022Z,9.4
2022-09-20T08:14:08.953Z,9.5
2022-09-20T08:17:08.019Z,9.5
2022-09-20T08:20:08.032Z,9.7
2022-09-20T08:23:22.833Z,9.7
2022-09-20T08:26:08.054Z,9.7
2022-09-20T08:29:08.217Z,9.8
2022-09-20T08:32:08.077Z,9.8
2022-09-20T08:35:08.091Z,9.9
2022-09-20T08:41:08.117Z,10.1
2022-09-20T08:44:08.133Z,10.1
2022-09-20T08:47:08.165Z,10.1
2022-09-20T08:50:09.917Z,10.2
2022-09-20T08:53:08.181Z,10.2
2022-09-20T08:56:08.195Z,10.1
2022-09-20T08:59:08.219Z,10.2
2022-09-20T09:02:08.255Z,10.2
2022-09-20T09:05:08.311Z,10.4
2022-09-20T09:08:08.259Z,10.4
2022-09-20T09:11:08.278Z,10.5
2022-09-20T09:14:08.282Z,10.4
2022-09-20T09:17:08.297Z,10.5
2022-09-20T09:20:08.287Z,10.6
2022-09-20T09:23:08.376Z,10.6
2022-09-20T09:26:08.316Z,10.5
2022-09-20T09:29:08.337Z,10.6
2022-09-20T09:32:08.393Z,10.6
2022-09-20T09:35:08.356Z,10.6
2022-09-20T09:38:08.361Z,10.6
2022-09-20T09:41:08.405Z,11
2022-09-20T09:44:08.392Z,10.8
2022-09-20T09:47:08.411Z,10.5
2022-09-20T09:50:09.943Z,10.5
2022-09-20T09:53:08.434Z,10.5
2022-09-20T09:56:12.092Z,10.4
2022-09-20T09:59:08.510Z,10.5
2022-09-20T10:02:08.515Z,10.6
2022-09-20T10:05:08.474Z,10.6
2022-09-20T10:08:08.488Z,10.8
2022-09-20T10:11:08.500Z,10.5
2022-09-20T10:14:08.502Z,10.7
2022-09-20T10:17:08.537Z,10.7
2022-09-20T10:20:08.526Z,10.6
2022-09-20T10:23:34.744Z,10.5
2022-09-20T10:26:08.562Z,10.7
2022-09-20T10:29:08.574Z,10.9
2022-09-20T10:32:08.978Z,11
2022-09-20T10:35:08.617Z,10.8
2022-09-20T10:38:08.604Z,10.6
2022-09-20T10:41:08.625Z,10.5
2022-09-20T10:44:08.634Z,10.8
2022-09-20T10:47:08.676Z,11
2022-09-20T10:50:08.709Z,10.7
2022-09-20T10:53:08.692Z,10.4
2022-09-20T10:56:08.710Z,10.3
2022-09-20T10:59:08.693Z,10.2
2022-09-20T11:02:08.725Z,10.5
2022-09-20T11:05:08.704Z,10.5
2022-09-20T11:08:08.714Z,10.8
2022-09-20T11:11:08.756Z,10.7
2022-09-20T11:14:08.750Z,10.4
2022-09-20T11:17:08.767Z,10.5
2022-09-20T11:20:08.866Z,9.8
2022-09-20T11:23:08.797Z,9.9
2022-09-20T11:26:08.807Z,9.7
2022-09-20T11:29:08.844Z,9.7
2022-09-20T11:32:08.885Z,9.8
2022-09-20T11:35:08.847Z,9.7
2022-09-20T11:38:08.856Z,9.9
2022-09-20T11:41:08.862Z,9.5
2022-09-20T11:44:08.875Z,9.7
2022-09-20T11:47:08.915Z,9.3
2022-09-20T11:50:08.940Z,9.6
2022-09-20T11:53:08.897Z,9.6
2022-09-20T11:56:08.896Z,9.4
2022-09-20T11:59:08.916Z,9.1
2022-09-20T12:02:08.995Z,9.1
2022-09-20T12:05:08.967Z,9
2022-09-20T12:08:08.955Z,8.8
2022-09-20T12:11:08.968Z,8.9
2022-09-20T12:14:08.981Z,8.8
2022-09-20T12:17:08.987Z,8.7
2022-09-20T12:20:09.006Z,8.9
2022-09-20T12:23:09.035Z,8.8
2022-09-20T12:26:09.018Z,8.5
2022-09-20T12:29:09.037Z,8.3
2022-09-20T12:32:09.055Z,8.3
2022-09-20T12:35:09.067Z,8.3
2022-09-20T12:38:09.072Z,8.2
2022-09-20T12:41:09.101Z,8.3
2022-09-20T12:44:09.080Z,8.3
2022-09-20T12:47:09.084Z,8.3
2022-09-20T12:50:09.103Z,8.5
2022-09-20T12:53:09.110Z,8.4
2022-09-20T12:56:09.125Z,8.5
2022-09-20T12:59:09.162Z,8.1
2022-09-20T13:02:09.188Z,8.2
2022-09-20T13:05:09.162Z,8.5
2022-09-20T13:08:09.172Z,8.5
2022-09-20T13:11:09.189Z,8.4
2022-09-20T13:14:09.231Z,8.5
2022-09-20T13:17:09.298Z,8.6
2022-09-20T13:20:09.269Z,9.1
2022-09-20T13:23:09.291Z,9
2022-09-20T13:26:09.331Z,8.9
2022-09-20T13:29:09.290Z,8.5
2022-09-20T13:32:09.288Z,8
2022-09-20T13:35:09.318Z,7.9
2022-09-20T13:38:09.421Z,7.9
2022-09-20T13:41:09.304Z,7.6
2022-09-20T13:44:09.308Z,7.6
2022-09-20T13:47:09.307Z,7.3
2022-09-20T13:50:09.308Z,7.4
2022-09-20T13:53:09.328Z,7.3
2022-09-20T13:56:09.305Z,7.3
2022-09-20T13:59:09.314Z,7.4
2022-09-20T14:02:09.346Z,7.6
2022-09-20T14:05:09.306Z,7.7
2022-09-20T14:08:09.305Z,7.7
2022-09-20T14:11:09.339Z,7.7
2022-09-20T14:14:09.318Z,7.9
2022-09-20T14:17:09.357Z,7.9
2022-09-20T14:20:09.315Z,7.9
2022-09-20T14:23:09.321Z,8.1
2022-09-20T14:26:09.319Z,8.3
2022-09-20T14:29:09.346Z,8.4
2022-09-20T14:32:09.320Z,7.8
2022-09-20T14:35:09.326Z,7.8
2022-09-20T14:38:09.323Z,7.6
2022-09-20T14:41:09.332Z,7.7
2022-09-20T14:44:09.333Z,7.6
2022-09-20T14:47:09.374Z,7.7
2022-09-20T14:50:09.340Z,7.5
2022-09-20T14:53:09.342Z,7.4
2022-09-20T14:56:09.347Z,7.4
2022-09-20T14:59:09.347Z,7.2
2022-09-20T15:02:09.420Z,7.1
2022-09-20T15:05:09.377Z,7.1
2022-09-20T15:08:09.353Z,7.3
2022-09-20T15:11:09.363Z,7.2
2022-09-20T15:14:09.354Z,7.3
2022-09-20T15:17:09.366Z,7.4
2022-09-20T15:20:09.373Z,7.4
2022-09-20T15:23:09.392Z,7.5
2022-09-20T15:26:09.372Z,7.6
2022-09-20T15:29:09.374Z,7.7
2022-09-20T15:32:09.384Z,7.8
2022-09-20T15:35:09.386Z,7.8
2022-09-20T15:38:09.390Z,7.8
2022-09-20T15:41:09.419Z,7.9
2022-09-20T15:44:09.387Z,7.9
2022-09-20T15:47:11.834Z,7.9
2022-09-20T15:50:09.386Z,8.1
2022-09-20T15:53:09.399Z,8.1
2022-09-20T15:56:09.404Z,8.2
2022-09-20T15:59:09.417Z,8.4
2022-09-20T16:02:09.463Z,8.5
2022-09-20T16:05:09.412Z,8.6
2022-09-20T16:08:09.412Z,8.5
2022-09-20T16:11:09.419Z,8.4
2022-09-20T16:14:09.427Z,8.3
2022-09-20T16:17:09.448Z,8.3
2022-09-20T16:20:09.431Z,8.3
2022-09-20T16:23:09.439Z,8.2
2022-09-20T16:26:09.437Z,8.2
2022-09-20T16:29:09.451Z,8.1
2022-09-20T16:32:09.510Z,8.1
2022-09-20T16:35:09.477Z,8.2
2022-09-20T16:38:09.464Z,8.2
2022-09-20T16:41:09.469Z,8.3
2022-09-20T16:44:09.477Z,8.3
2022-09-20T16:47:09.474Z,8.3
2022-09-20T16:50:09.480Z,8.4
2022-09-20T16:53:09.509Z,8.4
2022-09-20T16:56:09.491Z,8.4
2022-09-20T16:59:09.491Z,8.4
2022-09-20T17:02:09.502Z,8.4
2022-09-20T17:05:09.512Z,8.4
2022-09-20T17:08:09.509Z,8.4
2022-09-20T17:11:09.541Z,8.4
2022-09-20T17:14:09.522Z,8.4
2022-09-20T17:17:09.521Z,8.4
2022-09-20T17:20:09.533Z,8.4
2022-09-20T17:23:09.543Z,8.3
2022-09-20T17:26:09.546Z,8.4
2022-09-20T17:29:09.575Z,8.3
2022-09-20T17:32:09.580Z,8.4
2022-09-20T17:35:09.568Z,8.3
2022-09-20T17:38:09.573Z,8.3
2022-09-20T17:41:09.585Z,8.3
2022-09-20T17:44:09.586Z,8.3
2022-09-20T17:47:09.618Z,8.3
2022-09-20T17:50:09.597Z,8.3
2022-09-20T17:53:09.605Z,8.3
2022-09-20T17:56:09.624Z,8.4
2022-09-20T17:59:09.628Z,8.3
2022-09-20T18:02:09.630Z,8.3
2022-09-20T18:05:09.665Z,8.3
2022-09-20T18:08:09.643Z,8.3
2022-09-20T18:11:09.650Z,8.2
2022-09-20T18:14:09.654Z,8.2
2022-09-20T18:17:09.664Z,8.2
2022-09-20T18:20:09.673Z,8.1
2022-09-20T18:23:09.734Z,8.1
2022-09-20T18:26:09.683Z,8.1
2022-09-20T18:29:09.696Z,8.1
2022-09-20T18:32:09.701Z,8.1
2022-09-20T18:35:09.703Z,8.1
2022-09-20T18:38:09.710Z,7.9
2022-09-20T18:41:09.745Z,8
2022-09-20T18:44:09.721Z,8.1
2022-09-20T18:47:09.718Z,8.1
2022-09-20T18:50:09.719Z,8.2
2022-09-20T18:53:09.726Z,8.2
2022-09-20T18:56:09.719Z,8.2
2022-09-20T18:59:09.752Z,8.2
2022-09-20T19:02:09.726Z,8.1
2022-09-20T19:05:09.732Z,8.1
2022-09-20T19:08:09.727Z,8.1
2022-09-20T19:11:09.736Z,8.1
2022-09-20T19:14:09.742Z,8.1
2022-09-20T19:17:09.763Z,8.1
2022-09-20T19:20:09.735Z,8
2022-09-20T19:23:09.740Z,8
2022-09-20T19:26:09.743Z,8
2022-09-20T19:29:09.741Z,8
2022-09-20T19:32:09.749Z,7.9
2022-09-20T19:35:09.767Z,7.8
2022-09-20T19:38:09.742Z,7.8
2022-09-20T19:41:09.743Z,7.8
2022-09-20T19:44:09.742Z,7.7
2022-09-20T19:47:09.748Z,7.7
2022-09-20T19:50:09.750Z,7.7
2022-09-20T19:53:09.780Z,7.7
2022-09-20T19:56:09.764Z,7.7
2022-09-20T19:59:09.755Z,7.7
2022-09-20T20:02:09.764Z,7.7
2022-09-20T20:05:09.762Z,7.6
2022-09-20T20:08:09.767Z,7.6
2022-09-20T20:11:09.797Z,7.5
2022-09-20T20:14:09.772Z,7.5
2022-09-20T20:17:09.769Z,7.4
2022-09-20T20:20:09.768Z,7.4
2022-09-20T20:23:09.773Z,7.3
2022-09-20T20:26:09.767Z,7.3
2022-09-20T20:29:09.798Z,7.4
2022-09-20T20:32:09.792Z,7.4
2022-09-20T20:35:09.773Z,7.4
2022-09-20T20:38:09.782Z,7.4
2022-09-20T20:41:09.777Z,7.4
2022-09-20T20:44:09.779Z,7.2
2022-09-20T20:47:09.801Z,7.2
2022-09-20T20:50:09.780Z,7.1
2022-09-20T20:53:09.782Z,7
2022-09-20T20:56:09.779Z,6.9
2022-09-20T20:59:09.782Z,6.9
2022-09-20T21:02:09.846Z,6.9
2022-09-20T21:05:09.847Z,6.9
2022-09-20T21:08:09.782Z,6.9
2022-09-20T21:11:09.779Z,6.9
2022-09-20T21:14:09.786Z,7
2022-09-20T21:17:09.791Z,6.9
2022-09-20T21:20:09.790Z,6.8
2022-09-20T21:23:09.885Z,6.7
2022-09-20T21:26:09.791Z,6.6
2022-09-20T21:29:09.790Z,6.6
2022-09-20T21:32:09.792Z,6.6
2022-09-20T21:35:09.795Z,6.6
2022-09-20T21:38:09.796Z,6.5
2022-09-20T21:41:09.819Z,6.4
2022-09-20T21:44:09.806Z,6.4
2022-09-20T21:47:09.798Z,6.3
2022-09-20T21:50:09.805Z,6.3
2022-09-20T21:53:09.801Z,6.4
2022-09-20T21:56:09.808Z,6.4
2022-09-20T21:59:09.909Z,6.4
2022-09-20T22:02:09.844Z,6.5
2022-09-20T22:05:09.806Z,6.4
2022-09-20T22:08:09.816Z,6.4
2022-09-20T22:11:13.496Z,6.3
2022-09-20T22:14:09.816Z,6.3
2022-09-20T22:17:09.844Z,6.2
2022-09-20T22:20:09.813Z,6.2
2022-09-20T22:23:09.821Z,6.3
2022-09-20T22:26:09.819Z,6.3
2022-09-20T22:29:09.826Z,6.3
2022-09-20T22:32:09.828Z,6.3
2022-09-20T22:35:09.848Z,6.4
2022-09-20T22:38:09.833Z,6.5
2022-09-20T22:41:09.833Z,6.5
2022-09-20T22:44:09.837Z,6.6
2022-09-20T22:47:09.844Z,6.6
2022-09-20T22:50:09.844Z,6.5
2022-09-20T22:53:09.865Z,6.5
2022-09-20T22:56:09.845Z,6.5
2022-09-20T22:59:09.847Z,6.6
2022-09-20T23:02:09.847Z,6.7
2022-09-20T23:05:09.848Z,6.6
2022-09-20T23:08:09.855Z,6.5
2022-09-20T23:11:10.057Z,6.5
2022-09-20T23:14:09.856Z,6.6
2022-09-20T23:17:09.858Z,6.6
2022-09-20T23:20:09.859Z,6.6
2022-09-20T23:23:09.861Z,6.6
2022-09-20T23:26:09.861Z,6.5
2022-09-20T23:29:09.893Z,6.3
2022-09-20T23:32:09.862Z,6.1
2022-09-20T23:35:09.863Z,6
2022-09-20T23:38:09.863Z,6
2022-09-20T23:41:09.864Z,6
2022-09-20T23:44:09.923Z,5.9
2022-09-20T23:47:09.894Z,5.9
2022-09-20T23:50:09.870Z,5.9
2022-09-20T23:53:09.879Z,5.8
2022-09-20T23:56:09.884Z,5.9
2022-09-20T23:59:09.886Z,5.9
